Time;durP1;ratioP1;P1;durP2;ratioP2;P2;SDS_P1;SDS_P2;PMS_P1;PMS_P2;Temp;Humidity;BMP_temperature;BMP_pressure;BME280_temperature;BME280_humidity;BME280_pressure;Samples;Min_cycle;Max_cycle;Signal;HPM_P1;HPM_P2
2022/01/21 00:02:13;;;;;;;19.88;10.65;;;;;;;;;;5073464;28;20064;-68
2022/01/21 00:04:39;;;;;;;21.20;10.90;;;;;;;;;;5073375;28;20028;-66
2022/01/21 00:07:04;;;;;;;22.58;10.65;;;;;;;;;;5073230;28;20021;-67
2022/01/21 00:09:30;;;;;;;22.67;11.02;;;;;;;;;;5073392;28;20037;-68
2022/01/21 00:11:55;;;;;;;24.55;11.45;;;;;;;;;;5073348;28;20032;-67
2022/01/21 00:14:21;;;;;;;26.63;11.20;;;;;;;;;;5072950;28;20025;-67
2022/01/21 00:16:46;;;;;;;22.17;10.05;;;;;;;;;;5072609;28;20041;-66
2022/01/21 00:19:14;;;;;;;21.38;10.45;;;;;;;;;;5073226;28;20049;-67
2022/01/21 00:32:48;;;;;;;22.77;10.75;;;;;;;;;;5063286;28;20047;-68
2022/01/21 00:35:18;;;;;;;26.25;12.63;;;;;;;;;;5072574;28;20103;-67
2022/01/21 00:37:44;;;;;;;25.70;11.90;;;;;;;;;;5072778;28;20048;-67
2022/01/21 00:40:14;;;;;;;24.88;11.98;;;;;;;;;;5072731;28;20025;-67
2022/01/21 00:45:12;;;;;;;21.08;11.32;;;;;;;;;;5072348;28;20062;-67
2022/01/21 00:47:37;;;;;;;24.45;10.85;;;;;;;;;;5072550;28;20016;-66
2022/01/21 00:50:04;;;;;;;21.63;11.30;;;;;;;;;;5072355;28;20116;-67
2022/01/21 00:52:30;;;;;;;21.25;11.13;;;;;;;;;;5072206;28;20033;-67
2022/01/21 00:54:55;;;;;;;19.83;10.65;;;;;;;;;;5072624;28;20631;-68
2022/01/21 00:57:21;;;;;;;23.10;11.48;;;;;;;;;;5072272;28;20642;-67
2022/01/21 00:59:46;;;;;;;19.85;10.40;;;;;;;;;;5072473;28;20026;-66
2022/01/21 01:02:13;;;;;;;16.65;8.95;;;;;;;;;;5072197;28;20020;-67
2022/01/21 01:04:39;;;;;;;18.02;9.23;;;;;;;;;;5072231;28;20480;-65
2022/01/21 01:07:05;;;;;;;17.40;9.60;;;;;;;;;;5071871;28;20031;-66
2022/01/21 01:09:30;;;;;;;19.77;10.07;;;;;;;;;;5072217;28;20024;-66
2022/01/21 01:22:28;;;;;;;13.02;7.72;;;;;;;;;;5071844;28;20036;-66
2022/01/21 01:27:44;;;;;;;13.23;7.05;;;;;;;;;;5071933;28;20089;-67
2022/01/21 01:30:13;;;;;;;15.15;7.47;;;;;;;;;;5071858;28;20021;-66
2022/01/21 01:32:40;;;;;;;17.25;7.72;;;;;;;;;;5071776;28;20052;-67
2022/01/21 01:35:08;;;;;;;14.75;7.80;;;;;;;;;;5071900;28;20476;-67
2022/01/21 01:37:47;;;;;;;13.35;7.57;;;;;;;;;;5071434;28;20104;-67
2022/01/21 01:50:38;;;;;;;12.35;6.20;;;;;;;;;;5071753;28;20523;-67
2022/01/21 01:53:05;;;;;;;12.60;6.70;;;;;;;;;;5071375;28;20028;-67
2022/01/21 01:55:31;;;;;;;16.65;7.57;;;;;;;;;;5071166;28;20021;-67
2022/01/21 01:57:56;;;;;;;15.70;7.72;;;;;;;;;;5071135;28;20029;-67
2022/01/21 02:00:22;;;;;;;17.10;8.68;;;;;;;;;;5071067;28;20364;-68
2022/01/21 02:02:47;;;;;;;15.57;8.10;;;;;;;;;;5069825;28;20025;-67
2022/01/21 02:05:12;;;;;;;16.88;8.70;;;;;;;;;;5070601;28;20046;-66
2022/01/21 02:07:38;;;;;;;18.52;8.80;;;;;;;;;;5070999;28;20585;-66
2022/01/21 02:10:04;;;;;;;17.00;8.90;;;;;;;;;;5071113;28;20086;-66
2022/01/21 02:12:30;;;;;;;16.17;9.00;;;;;;;;;;5070939;28;20054;-66
2022/01/21 02:14:58;;;;;;;17.60;8.52;;;;;;;;;;5070854;28;20423;-67
2022/01/21 02:22:43;;;;;;;13.27;6.72;;;;;;;;;;5071101;28;20124;-67
2022/01/21 02:25:16;;;;;;;16.65;7.55;;;;;;;;;;5070805;28;20454;-67
2022/01/21 02:27:42;;;;;;;11.77;6.72;;;;;;;;;;5070320;28;20028;-67
2022/01/21 02:30:09;;;;;;;14.73;6.63;;;;;;;;;;5070343;28;20120;-67
2022/01/21 02:32:35;;;;;;;12.02;6.38;;;;;;;;;;5070557;28;20032;-67
2022/01/21 02:35:00;;;;;;;12.32;6.38;;;;;;;;;;5070256;28;20059;-67
2022/01/21 02:37:25;;;;;;;12.65;6.30;;;;;;;;;;5070203;28;20486;-67
2022/01/21 02:39:51;;;;;;;12.35;6.70;;;;;;;;;;5070564;28;20028;-67
2022/01/21 02:42:17;;;;;;;13.55;6.80;;;;;;;;;;5070450;28;20032;-66
2022/01/21 02:44:43;;;;;;;12.35;6.35;;;;;;;;;;5070515;28;20029;-66
2022/01/21 02:47:09;;;;;;;11.48;6.00;;;;;;;;;;5070083;28;20479;-68
2022/01/21 02:49:35;;;;;;;11.77;6.53;;;;;;;;;;5070358;28;20025;-67
2022/01/21 02:52:02;;;;;;;13.50;7.30;;;;;;;;;;5070342;28;20100;-67
2022/01/21 02:54:30;;;;;;;16.15;7.90;;;;;;;;;;5070494;28;20020;-67
2022/01/21 02:56:57;;;;;;;15.45;7.25;;;;;;;;;;5069890;28;20024;-68
2022/01/21 02:59:22;;;;;;;20.38;8.90;;;;;;;;;;5070173;28;20020;-66
2022/01/21 03:01:49;;;;;;;15.40;7.75;;;;;;;;;;5070175;28;20032;-67
2022/01/21 03:04:22;;;;;;;17.30;7.82;;;;;;;;;;5069961;28;20025;-66
2022/01/21 03:06:47;;;;;;;16.48;7.25;;;;;;;;;;5069639;28;20056;-66
2022/01/21 03:09:12;;;;;;;15.40;7.35;;;;;;;;;;5070253;28;20051;-66
2022/01/21 03:11:38;;;;;;;14.35;6.85;;;;;;;;;;5069991;28;20016;-68
2022/01/21 03:14:04;;;;;;;13.75;6.47;;;;;;;;;;5070065;28;20024;-66
2022/01/21 03:16:29;;;;;;;11.93;6.65;;;;;;;;;;5069764;28;20436;-66
2022/01/21 03:18:55;;;;;;;11.43;5.80;;;;;;;;;;5069742;28;20041;-68
2022/01/21 03:21:21;;;;;;;13.30;6.18;;;;;;;;;;5069802;28;20029;-68
2022/01/21 03:23:49;;;;;;;12.07;5.82;;;;;;;;;;5069964;28;20120;-67
2022/01/21 03:26:18;;;;;;;7.22;4.80;;;;;;;;;;5069720;28;20049;-67
2022/01/21 03:28:46;;;;;;;9.93;5.13;;;;;;;;;;5070129;28;20111;-66
2022/01/21 03:31:11;;;;;;;9.35;4.80;;;;;;;;;;5069803;28;20647;-66
2022/01/21 03:33:37;;;;;;;9.60;4.88;;;;;;;;;;5070037;28;20103;-68
2022/01/21 03:36:03;;;;;;;9.82;5.20;;;;;;;;;;5069712;28;20077;-67
2022/01/21 03:38:29;;;;;;;8.63;5.18;;;;;;;;;;5068110;28;20029;-67
2022/01/21 03:40:55;;;;;;;8.98;5.00;;;;;;;;;;5069567;28;20496;-67
2022/01/21 03:43:22;;;;;;;9.02;5.10;;;;;;;;;;5069849;28;20551;-66
2022/01/21 03:45:47;;;;;;;8.95;4.97;;;;;;;;;;5069712;28;20032;-66
2022/01/21 03:48:14;;;;;;;8.27;4.53;;;;;;;;;;5069461;28;20407;-68
2022/01/21 03:50:40;;;;;;;8.25;4.63;;;;;;;;;;5069800;28;20034;-66
2022/01/21 03:53:05;;;;;;;9.38;4.60;;;;;;;;;;5069561;28;20025;-67
2022/01/21 03:55:32;;;;;;;9.98;5.28;;;;;;;;;;5069483;28;20035;-68
2022/01/21 03:57:59;;;;;;;7.68;4.40;;;;;;;;;;5069218;28;20033;-67
2022/01/21 04:00:27;;;;;;;7.57;4.47;;;;;;;;;;5069631;28;20094;-68
2022/01/21 04:02:53;;;;;;;9.30;4.50;;;;;;;;;;5069646;28;20135;-67
2022/01/21 04:05:19;;;;;;;7.72;4.65;;;;;;;;;;5069643;28;20499;-66
2022/01/21 04:07:45;;;;;;;8.48;4.40;;;;;;;;;;5069124;28;20028;-67
2022/01/21 04:10:11;;;;;;;11.35;4.47;;;;;;;;;;5069527;28;20036;-66
2022/01/21 04:12:36;;;;;;;9.80;4.50;;;;;;;;;;5069505;28;20055;-68
2022/01/21 04:15:03;;;;;;;15.55;4.68;;;;;;;;;;5069269;28;20032;-67
2022/01/21 04:17:28;;;;;;;7.60;4.20;;;;;;;;;;5068869;28;20128;-67
2022/01/21 04:19:54;;;;;;;11.60;4.32;;;;;;;;;;5069492;28;20108;-67
2022/01/21 04:22:21;;;;;;;6.75;4.25;;;;;;;;;;5069409;28;20032;-67
2022/01/21 04:24:48;;;;;;;7.90;4.00;;;;;;;;;;5069517;28;20483;-66
2022/01/21 04:27:14;;;;;;;8.23;4.03;;;;;;;;;;5069516;28;20028;-67
2022/01/21 04:29:39;;;;;;;9.65;3.92;;;;;;;;;;5072853;28;20032;-67
2022/01/21 04:32:06;;;;;;;8.90;4.55;;;;;;;;;;5072834;28;20028;-67
2022/01/21 04:34:31;;;;;;;8.00;4.38;;;;;;;;;;5072784;28;20024;-66
2022/01/21 04:36:57;;;;;;;8.80;4.30;;;;;;;;;;5072737;28;20086;-66
2022/01/21 04:39:31;;;;;;;11.98;4.28;;;;;;;;;;5072877;28;20016;-67
2022/01/21 04:47:24;;;;;;;13.48;4.20;;;;;;;;;;5072172;28;20085;-67
2022/01/21 04:49:50;;;;;;;7.82;3.70;;;;;;;;;;5072612;28;20032;-68
2022/01/21 04:52:16;;;;;;;8.15;4.18;;;;;;;;;;5072588;28;20025;-67
2022/01/21 04:54:42;;;;;;;8.80;4.25;;;;;;;;;;5072604;28;20044;-67
2022/01/21 04:57:08;;;;;;;8.93;4.30;;;;;;;;;;5072251;28;20066;-67
2022/01/21 04:59:34;;;;;;;10.02;4.53;;;;;;;;;;5072374;28;20476;-66
2022/01/21 05:01:59;;;;;;;10.57;4.72;;;;;;;;;;5072130;28;20036;-66
2022/01/21 05:04:25;;;;;;;10.25;4.70;;;;;;;;;;5072284;28;20032;-68
2022/01/21 05:06:52;;;;;;;10.65;5.10;;;;;;;;;;5072003;28;20024;-68
2022/01/21 05:09:18;;;;;;;11.18;4.75;;;;;;;;;;5072418;28;20024;-68
2022/01/21 05:11:46;;;;;;;10.50;4.55;;;;;;;;;;5072329;28;20093;-67
2022/01/21 05:14:19;;;;;;;7.55;4.03;;;;;;;;;;5072012;28;20041;-67
2022/01/21 05:16:47;;;;;;;10.05;4.70;;;;;;;;;;5071917;28;20074;-68
2022/01/21 05:19:17;;;;;;;8.70;4.55;;;;;;;;;;5070426;28;20074;-66
2022/01/21 05:21:45;;;;;;;14.20;5.10;;;;;;;;;;5071940;28;20442;-66
2022/01/21 05:24:11;;;;;;;11.77;4.93;;;;;;;;;;5070709;28;20094;-67
2022/01/21 05:26:39;;;;;;;12.35;5.68;;;;;;;;;;5072004;28;20067;-67
2022/01/21 05:29:10;;;;;;;15.38;5.75;;;;;;;;;;5071454;28;20033;-67
2022/01/21 05:31:35;;;;;;;15.23;5.32;;;;;;;;;;5072049;28;20103;-67
2022/01/21 05:34:02;;;;;;;11.75;5.53;;;;;;;;;;5071854;28;20036;-67
2022/01/21 05:36:30;;;;;;;12.65;5.15;;;;;;;;;;5071443;28;20440;-66
2022/01/21 05:38:56;;;;;;;11.18;5.50;;;;;;;;;;5070129;28;20029;-66
2022/01/21 05:41:23;;;;;;;12.85;5.20;;;;;;;;;;5071638;28;20518;-68
2022/01/21 05:43:50;;;;;;;12.23;5.70;;;;;;;;;;5071497;28;20029;-66
2022/01/21 05:49:11;;;;;;;10.15;4.93;;;;;;;;;;5061170;28;20108;-66
2022/01/21 05:51:38;;;;;;;12.13;4.55;;;;;;;;;;5071470;28;20027;-67
2022/01/21 05:54:04;;;;;;;10.73;5.00;;;;;;;;;;5071301;28;20162;-68
2022/01/21 05:56:31;;;;;;;9.43;4.63;;;;;;;;;;5071300;28;20103;-67
2022/01/21 05:58:56;;;;;;;9.23;4.47;;;;;;;;;;5070841;28;20024;-67
2022/01/21 06:01:22;;;;;;;9.68;4.07;;;;;;;;;;5071267;28;20381;-67
2022/01/21 06:03:48;;;;;;;10.25;4.47;;;;;;;;;;5071317;28;20020;-67
2022/01/21 06:06:13;;;;;;;8.25;4.43;;;;;;;;;;5071136;28;20025;-66
2022/01/21 06:08:39;;;;;;;6.93;3.50;;;;;;;;;;5070666;28;20031;-66
2022/01/21 06:11:05;;;;;;;7.85;3.85;;;;;;;;;;5070944;28;20114;-67
2022/01/21 06:13:31;;;;;;;6.80;3.75;;;;;;;;;;5070870;28;20032;-68
2022/01/21 06:15:58;;;;;;;7.32;3.55;;;;;;;;;;5070702;28;20615;-67
2022/01/21 06:18:24;;;;;;;8.68;3.60;;;;;;;;;;5070636;28;20074;-66
2022/01/21 06:20:50;;;;;;;8.82;4.10;;;;;;;;;;5070842;28;20056;-67
2022/01/21 06:23:15;;;;;;;5.40;3.20;;;;;;;;;;5070836;28;20082;-67
2022/01/21 06:25:42;;;;;;;11.18;4.13;;;;;;;;;;5070795;28;20028;-67
2022/01/21 06:28:07;;;;;;;7.97;4.88;;;;;;;;;;5068913;28;20395;-67
2022/01/21 06:30:33;;;;;;;8.18;4.10;;;;;;;;;;5070687;28;20539;-67
2022/01/21 06:32:58;;;;;;;11.30;4.35;;;;;;;;;;5070753;28;20107;-67
2022/01/21 06:35:24;;;;;;;8.93;4.22;;;;;;;;;;5070568;28;20028;-67
2022/01/21 06:37:49;;;;;;;11.05;4.60;;;;;;;;;;5070189;28;20564;-66
2022/01/21 06:40:17;;;;;;;8.88;4.40;;;;;;;;;;5070611;28;20060;-66
2022/01/21 06:42:43;;;;;;;6.90;4.00;;;;;;;;;;5068950;28;20028;-69
2022/01/21 06:45:09;;;;;;;6.97;4.28;;;;;;;;;;5070167;28;20094;-68
2022/01/21 06:47:34;;;;;;;9.48;4.28;;;;;;;;;;5069973;28;20025;-66
2022/01/21 06:50:00;;;;;;;9.07;4.53;;;;;;;;;;5070006;28;20073;-67
2022/01/21 06:52:29;;;;;;;9.48;4.30;;;;;;;;;;5070218;28;20028;-67
2022/01/21 06:54:56;;;;;;;11.15;4.60;;;;;;;;;;5070514;28;20025;-67
2022/01/21 06:57:22;;;;;;;7.88;4.40;;;;;;;;;;5070218;28;20044;-68
2022/01/21 06:59:48;;;;;;;9.68;4.45;;;;;;;;;;5069936;28;20028;-68
2022/01/21 07:02:14;;;;;;;7.80;4.45;;;;;;;;;;5069931;28;20028;-68
2022/01/21 07:04:40;;;;;;;10.60;5.20;;;;;;;;;;5070068;28;20526;-66
2022/01/21 07:07:05;;;;;;;11.55;5.00;;;;;;;;;;5070062;28;20020;-68
2022/01/21 07:09:31;;;;;;;10.25;4.78;;;;;;;;;;5069798;28;20036;-67
2022/01/21 07:11:56;;;;;;;9.27;4.80;;;;;;;;;;5070194;28;20540;-68
2022/01/21 07:14:22;;;;;;;9.80;4.32;;;;;;;;;;5069935;28;20070;-67
2022/01/21 07:16:48;;;;;;;9.32;4.10;;;;;;;;;;5069708;28;20045;-66
2022/01/21 07:19:14;;;;;;;7.85;4.30;;;;;;;;;;5069498;28;20024;-67
2022/01/21 07:21:40;;;;;;;10.48;4.22;;;;;;;;;;5069648;28;20377;-68
2022/01/21 07:24:06;;;;;;;8.68;3.90;;;;;;;;;;5069907;28;20100;-66
2022/01/21 07:26:32;;;;;;;11.45;4.20;;;;;;;;;;5070021;28;20156;-68
2022/01/21 07:28:57;;;;;;;9.02;4.57;;;;;;;;;;5069283;28;20028;-67
2022/01/21 07:31:23;;;;;;;13.73;5.20;;;;;;;;;;5069991;28;20098;-68
2022/01/21 07:33:48;;;;;;;11.32;4.78;;;;;;;;;;5069935;28;20493;-68
2022/01/21 07:36:14;;;;;;;12.32;4.30;;;;;;;;;;5069434;28;20542;-68
2022/01/21 07:38:41;;;;;;;7.35;3.65;;;;;;;;;;5069407;28;20035;-66
2022/01/21 07:41:07;;;;;;;11.40;4.32;;;;;;;;;;5069859;28;20357;-68
2022/01/21 07:43:32;;;;;;;7.00;3.55;;;;;;;;;;5069888;28;20024;-67
2022/01/21 07:45:58;;;;;;;8.27;4.00;;;;;;;;;;5069691;28;20070;-67
2022/01/21 07:48:23;;;;;;;7.20;3.78;;;;;;;;;;5069426;28;20032;-68
2022/01/21 07:50:49;;;;;;;7.15;3.83;;;;;;;;;;5068352;28;20032;-67
2022/01/21 07:53:14;;;;;;;8.48;3.80;;;;;;;;;;5069680;28;20024;-68
2022/01/21 07:55:40;;;;;;;11.10;4.93;;;;;;;;;;5069424;28;20032;-68
2022/01/21 07:58:05;;;;;;;7.78;3.78;;;;;;;;;;5069560;28;20025;-69
2022/01/21 08:00:31;;;;;;;6.40;3.80;;;;;;;;;;5069423;28;20029;-67
2022/01/21 08:02:57;;;;;;;7.18;3.72;;;;;;;;;;5071853;28;20063;-68
2022/01/21 08:05:22;;;;;;;6.13;3.47;;;;;;;;;;5073242;28;20612;-67
2022/01/21 08:07:48;;;;;;;6.72;3.35;;;;;;;;;;5073592;28;20040;-68
2022/01/21 08:10:13;;;;;;;7.85;3.22;;;;;;;;;;5072574;28;20495;-67
2022/01/21 08:12:39;;;;;;;8.95;3.90;;;;;;;;;;5073112;28;20027;-66
2022/01/21 08:15:05;;;;;;;11.52;4.20;;;;;;;;;;5073056;28;20494;-67
2022/01/21 08:17:30;;;;;;;9.27;3.80;;;;;;;;;;5073037;28;20041;-68
2022/01/21 08:19:59;;;;;;;11.63;4.30;;;;;;;;;;5072952;28;20023;-68
2022/01/21 08:22:26;;;;;;;6.85;3.53;;;;;;;;;;5073245;28;20033;-67
2022/01/21 08:24:51;;;;;;;7.78;4.05;;;;;;;;;;5072924;28;20020;-67
2022/01/21 08:27:17;;;;;;;8.95;4.45;;;;;;;;;;5072762;28;20027;-67
2022/01/21 08:29:42;;;;;;;7.00;3.95;;;;;;;;;;5072412;28;20055;-67
2022/01/21 08:32:08;;;;;;;7.68;3.88;;;;;;;;;;5072871;28;20025;-67
2022/01/21 08:34:34;;;;;;;7.78;3.92;;;;;;;;;;5073012;28;20017;-66
2022/01/21 08:37:01;;;;;;;7.22;3.95;;;;;;;;;;5072727;28;20656;-66
2022/01/21 08:39:27;;;;;;;6.97;4.07;;;;;;;;;;5072305;28;20059;-67
2022/01/21 08:41:53;;;;;;;7.85;4.00;;;;;;;;;;5072625;28;20024;-66
2022/01/21 08:44:18;;;;;;;7.68;4.05;;;;;;;;;;5072435;28;20513;-66
2022/01/21 08:46:44;;;;;;;11.00;4.30;;;;;;;;;;5072532;28;20467;-67
2022/01/21 08:49:09;;;;;;;9.52;4.70;;;;;;;;;;5072173;28;20029;-66
2022/01/21 08:51:48;;;;;;;9.85;4.80;;;;;;;;;;5072798;28;20043;-65
2022/01/21 08:54:15;;;;;;;10.65;4.60;;;;;;;;;;5072642;28;20032;-65
2022/01/21 08:56:41;;;;;;;8.57;4.50;;;;;;;;;;5072646;28;20142;-67
2022/01/21 08:59:06;;;;;;;11.13;4.95;;;;;;;;;;5072055;28;20558;-66
2022/01/21 09:01:32;;;;;;;8.55;4.60;;;;;;;;;;5072019;28;20040;-65
2022/01/21 09:03:57;;;;;;;11.35;4.97;;;;;;;;;;5072376;28;20481;-67
2022/01/21 09:06:28;;;;;;;9.95;4.97;;;;;;;;;;5072376;28;20043;-66
2022/01/21 09:08:53;;;;;;;;;;;;;;;;;;5072411;28;20032;-65
2022/01/21 09:11:19;;;;;;;8.40;4.78;;;;;;;;;;5070907;28;19913;-67
2022/01/21 09:13:44;;;;;;;11.32;5.43;;;;;;;;;;5071858;28;20093;-65
2022/01/21 09:16:10;;;;;;;18.75;6.60;;;;;;;;;;5071656;28;20540;-66
2022/01/21 09:18:47;;;;;;;15.77;6.53;;;;;;;;;;5071574;28;20135;-66
2022/01/21 09:21:14;;;;;;;25.15;9.20;;;;;;;;;;5070267;28;20031;-66
2022/01/21 09:23:40;;;;;;;26.83;9.55;;;;;;;;;;5072012;28;20025;-66
2022/01/21 09:26:07;;;;;;;22.52;8.43;;;;;;;;;;5079607;28;20031;-66
2022/01/21 09:28:32;;;;;;;19.25;8.05;;;;;;;;;;5071218;28;20058;-66
2022/01/21 09:30:58;;;;;;;20.10;7.53;;;;;;;;;;5071571;28;20028;-66
2022/01/21 09:33:23;;;;;;;14.05;5.78;;;;;;;;;;5071363;28;20075;-67
2022/01/21 09:35:49;;;;;;;12.90;5.80;;;;;;;;;;5071568;28;20067;-66
2022/01/21 09:38:15;;;;;;;15.02;6.10;;;;;;;;;;5071637;28;20024;-67
2022/01/21 09:40:47;;;;;;;10.05;5.00;;;;;;;;;;5070969;28;20024;-67
2022/01/21 09:43:13;;;;;;;11.98;5.20;;;;;;;;;;5071275;28;20028;-67
2022/01/21 09:45:40;;;;;;;10.43;5.10;;;;;;;;;;5069468;28;20593;-67
2022/01/21 09:48:08;;;;;;;12.18;5.63;;;;;;;;;;5069471;28;20025;-67
2022/01/21 09:50:34;;;;;;;11.32;5.45;;;;;;;;;;5070544;28;20024;-67
2022/01/21 09:53:02;;;;;;;15.85;6.00;;;;;;;;;;5070816;28;20028;-68
2022/01/21 09:55:27;;;;;;;11.13;6.38;;;;;;;;;;5071017;28;20025;-68
2022/01/21 09:57:55;;;;;;;14.48;6.53;;;;;;;;;;5071035;28;20025;-69
2022/01/21 10:00:25;;;;;;;10.02;5.25;;;;;;;;;;5069952;28;20120;-68
2022/01/21 10:02:52;;;;;;;12.77;5.53;;;;;;;;;;5070572;28;20063;-68
2022/01/21 10:05:18;;;;;;;13.43;5.00;;;;;;;;;;5070727;28;20020;-69
2022/01/21 10:07:48;;;;;;;9.02;4.90;;;;;;;;;;5070662;28;20039;-68
2022/01/21 10:10:15;;;;;;;10.25;4.82;;;;;;;;;;5070409;28;20067;-65
2022/01/21 10:12:44;;;;;;;10.25;4.85;;;;;;;;;;5070887;28;20503;-69
2022/01/21 10:15:10;;;;;;;12.38;5.03;;;;;;;;;;5071030;28;20032;-68
2022/01/21 10:17:38;;;;;;;10.07;5.22;;;;;;;;;;5084292;28;20629;-66
2022/01/21 10:20:16;;;;;;;8.95;4.90;;;;;;;;;;5068869;28;20063;-66
2022/01/21 10:23:09;;;;;;;9.73;4.78;;;;;;;;;;5068409;28;20763;-66
2022/01/21 10:25:37;;;;;;;11.00;4.65;;;;;;;;;;5072320;28;20036;-68
2022/01/21 10:28:17;;;;;;;13.27;5.15;;;;;;;;;;5076870;28;20240;-65
2022/01/21 10:30:44;;;;;;;10.13;4.27;;;;;;;;;;5074502;28;20021;-67
2022/01/21 10:33:20;;;;;;;6.45;3.55;;;;;;;;;;5069676;28;20055;-67
2022/01/21 10:35:48;;;;;;;7.88;3.72;;;;;;;;;;5069788;28;20770;-67
2022/01/21 10:38:17;;;;;;;10.20;3.70;;;;;;;;;;5069289;28;20024;-66
2022/01/21 10:40:44;;;;;;;12.00;3.38;;;;;;;;;;5068088;28;20028;-67
2022/01/21 10:43:14;;;;;;;6.03;3.03;;;;;;;;;;5068907;28;20028;-67
2022/01/21 10:45:53;;;;;;;8.85;3.10;;;;;;;;;;5069336;28;20032;-66
2022/01/21 10:48:18;;;;;;;8.60;3.63;;;;;;;;;;5069378;28;20032;-67
2022/01/21 10:50:44;;;;;;;15.05;4.50;;;;;;;;;;5068661;28;20070;-66
2022/01/21 10:53:29;;;;;;;7.25;3.08;;;;;;;;;;5068883;28;20033;-67
2022/01/21 10:56:08;;;;;;;6.50;2.80;;;;;;;;;;5068545;28;20051;-67
2022/01/21 10:58:41;;;;;;;16.50;2.88;;;;;;;;;;5069151;28;20476;-67
2022/01/21 11:01:17;;;;;;;6.22;2.90;;;;;;;;;;5068532;28;20067;-66
2022/01/21 11:04:05;;;;;;;5.28;2.53;;;;;;;;;;5068730;28;20074;-67
2022/01/21 11:06:44;;;;;;;11.88;2.70;;;;;;;;;;5069023;28;20039;-66
2022/01/21 11:09:24;;;;;;;6.22;2.40;;;;;;;;;;5068810;28;20017;-67
2022/01/21 11:12:14;;;;;;;5.68;2.60;;;;;;;;;;5069822;28;20158;-67
2022/01/21 11:14:59;;;;;;;7.93;2.92;;;;;;;;;;5069617;28;20020;-64
2022/01/21 11:17:26;;;;;;;7.78;2.50;;;;;;;;;;5069429;28;20044;-65
2022/01/21 11:20:18;;;;;;;7.57;2.80;;;;;;;;;;5069376;28;20013;-65
2022/01/21 11:22:56;;;;;;;7.30;2.85;;;;;;;;;;5069422;28;20056;-66
2022/01/21 11:25:49;;;;;;;6.57;2.60;;;;;;;;;;5069330;28;20028;-64
2022/01/21 11:28:49;;;;;;;6.10;2.42;;;;;;;;;;5065948;28;20087;-65
2022/01/21 11:31:24;;;;;;;6.13;2.35;;;;;;;;;;5067655;28;20036;-65
2022/01/21 11:33:49;;;;;;;5.50;2.50;;;;;;;;;;5069488;28;20078;-65
2022/01/21 11:36:16;;;;;;;6.78;2.78;;;;;;;;;;5069488;28;20025;-65
2022/01/21 11:38:48;;;;;;;6.53;2.60;;;;;;;;;;5072703;28;20032;-67
2022/01/21 11:41:15;;;;;;;8.48;3.40;;;;;;;;;;5073117;28;20088;-66
2022/01/21 11:43:50;;;;;;;5.55;2.97;;;;;;;;;;5072055;28;20073;-65
2022/01/21 11:48:53;;;;;;;6.53;2.30;;;;;;;;;;5073415;28;20166;-62
2022/01/21 11:51:32;;;;;;;6.95;2.38;;;;;;;;;;5105641;28;20063;-64
2022/01/21 11:53:59;;;;;;;4.53;2.28;;;;;;;;;;5073170;28;20598;-64
2022/01/21 11:56:32;;;;;;;6.28;2.28;;;;;;;;;;5073015;28;20020;-63
2022/01/21 11:59:08;;;;;;;7.38;2.03;;;;;;;;;;5073041;28;20020;-69
2022/01/21 12:01:47;;;;;;;3.85;2.20;;;;;;;;;;5072527;28;20116;-63
2022/01/21 12:04:35;;;;;;;5.22;2.17;;;;;;;;;;5071152;28;20146;-62
2022/01/21 12:07:01;;;;;;;6.07;2.22;;;;;;;;;;5051900;28;20239;-62
2022/01/21 12:09:56;;;;;;;9.43;2.30;;;;;;;;;;5052551;28;20501;-66
2022/01/21 12:12:49;;;;;;;6.10;2.28;;;;;;;;;;5052508;28;20025;-65
2022/01/21 12:15:24;;;;;;;5.30;2.08;;;;;;;;;;5058500;28;20056;-64
2022/01/21 12:17:56;;;;;;;5.88;2.38;;;;;;;;;;5068351;28;20078;-65
2022/01/21 12:20:35;;;;;;;5.53;2.63;;;;;;;;;;5072788;28;20028;-65
2022/01/21 12:23:12;;;;;;;8.95;2.67;;;;;;;;;;5072763;28;20484;-65
2022/01/21 12:26:10;;;;;;;5.82;2.08;;;;;;;;;;5072634;28;20578;-64
2022/01/21 12:28:37;;;;;;;4.47;1.90;;;;;;;;;;5070486;28;20087;-64
2022/01/21 12:31:03;;;;;;;5.07;1.88;;;;;;;;;;5072496;28;20068;-67
2022/01/21 12:33:52;;;;;;;4.82;2.03;;;;;;;;;;5072677;28;20483;-65
2022/01/21 12:36:19;;;;;;;5.60;2.30;;;;;;;;;;5073013;28;20024;-66
2022/01/21 12:41:16;;;;;;;5.72;2.22;;;;;;;;;;5074495;28;20025;-66
2022/01/21 12:43:48;;;;;;;5.22;2.05;;;;;;;;;;5072485;28;20029;-65
2022/01/21 12:46:18;;;;;;;6.50;2.30;;;;;;;;;;5070942;28;20393;-65
2022/01/21 12:48:45;;;;;;;8.52;2.38;;;;;;;;;;5071857;28;20081;-65
2022/01/21 12:51:20;;;;;;;8.93;2.30;;;;;;;;;;5071294;28;20029;-67
2022/01/21 12:56:55;;;;;;;4.95;2.25;;;;;;;;;;5072549;28;20038;-66
2022/01/21 12:59:23;;;;;;;8.00;2.40;;;;;;;;;;5072012;28;20029;-65
2022/01/21 13:01:49;;;;;;;5.15;2.20;;;;;;;;;;5072066;28;20028;-66
2022/01/21 13:04:51;;;;;;;6.97;2.33;;;;;;;;;;5073275;28;20048;-66
2022/01/21 13:07:47;;;;;;;5.63;2.40;;;;;;;;;;5038194;28;20090;-65
2022/01/21 13:10:27;;;;;;;4.03;1.98;;;;;;;;;;5068846;28;20059;-66
2022/01/21 13:15:24;;;;;;;;;;;;;;;;;;5083868;28;20048;-64
2022/01/21 13:17:59;;;;;;;7.45;2.50;;;;;;;;;;5083126;28;19974;-67
2022/01/21 13:20:31;;;;;;;5.72;2.30;;;;;;;;;;5078262;28;20530;-65
2022/01/21 13:22:57;;;;;;;5.90;2.25;;;;;;;;;;5072129;28;20028;-65
2022/01/21 13:25:23;;;;;;;7.22;2.38;;;;;;;;;;5073240;28;20104;-66
2022/01/21 13:27:55;;;;;;;7.45;2.50;;;;;;;;;;5073736;28;20095;-66
2022/01/21 13:30:23;;;;;;;5.50;2.28;;;;;;;;;;5072294;28;20039;-65
2022/01/21 13:32:59;;;;;;;6.57;2.20;;;;;;;;;;5073125;28;20036;-65
2022/01/21 13:35:25;;;;;;;6.63;2.10;;;;;;;;;;5077254;28;20028;-65
2022/01/21 13:38:04;;;;;;;5.68;2.15;;;;;;;;;;5077287;28;20111;-64
2022/01/21 13:40:34;;;;;;;6.40;2.20;;;;;;;;;;5070605;28;20029;-63
2022/01/21 13:43:06;;;;;;;7.13;2.03;;;;;;;;;;5069992;28;20525;-64
2022/01/21 13:45:32;;;;;;;5.35;2.00;;;;;;;;;;5070118;28;20032;-64
2022/01/21 13:48:05;;;;;;;4.80;1.90;;;;;;;;;;5070418;28;20028;-62
2022/01/21 13:50:32;;;;;;;6.10;2.00;;;;;;;;;;5071033;28;20037;-63
2022/01/21 13:53:05;;;;;;;5.72;1.98;;;;;;;;;;5070643;28;20452;-65
2022/01/21 13:55:44;;;;;;;4.72;1.95;;;;;;;;;;5071459;28;20035;-64
2022/01/21 13:58:17;;;;;;;3.67;1.92;;;;;;;;;;5070031;28;20515;-62
2022/01/21 14:00:52;;;;;;;8.00;2.58;;;;;;;;;;5069991;28;20439;-62
2022/01/21 14:03:24;;;;;;;7.63;2.38;;;;;;;;;;5071685;28;20036;-63
2022/01/21 14:06:07;;;;;;;5.40;2.60;;;;;;;;;;5071027;28;20027;-63
2022/01/21 14:08:43;;;;;;;8.25;2.30;;;;;;;;;;5070960;28;20028;-64
2022/01/21 14:11:25;;;;;;;7.75;2.75;;;;;;;;;;5070784;28;20515;-63
2022/01/21 14:14:00;;;;;;;7.22;2.50;;;;;;;;;;5070618;28;20065;-64
2022/01/21 14:16:31;;;;;;;9.23;2.35;;;;;;;;;;5070932;28;20020;-64
2022/01/21 14:18:58;;;;;;;7.22;2.40;;;;;;;;;;5069347;28;20089;-63
2022/01/21 14:21:26;;;;;;;6.13;2.30;;;;;;;;;;5070647;28;20056;-63
2022/01/21 14:23:53;;;;;;;6.88;2.30;;;;;;;;;;5070856;28;20021;-63
2022/01/21 14:26:24;;;;;;;10.88;3.75;;;;;;;;;;5070729;28;20017;-63
2022/01/21 14:28:58;;;;;;;8.07;4.10;;;;;;;;;;5070584;28;20024;-63
2022/01/21 14:31:28;;;;;;;7.22;2.30;;;;;;;;;;5070519;28;20024;-63
2022/01/21 14:33:54;;;;;;;10.38;4.30;;;;;;;;;;5069449;28;20112;-63
2022/01/21 14:36:20;;;;;;;12.52;4.68;;;;;;;;;;5070633;28;20182;-63
2022/01/21 14:38:48;;;;;;;11.10;3.92;;;;;;;;;;5070403;28;20024;-62
2022/01/21 14:41:21;;;;;;;8.27;4.05;;;;;;;;;;5070390;28;20089;-63
2022/01/21 14:43:55;;;;;;;12.32;3.22;;;;;;;;;;5070517;28;20048;-63
2022/01/21 14:46:25;;;;;;;5.95;2.80;;;;;;;;;;5070402;28;20129;-63
2022/01/21 14:49:06;;;;;;;7.00;2.70;;;;;;;;;;5070407;28;20032;-63
2022/01/21 14:51:49;;;;;;;6.43;2.75;;;;;;;;;;5070247;28;20035;-62
2022/01/21 14:54:17;;;;;;;7.07;2.67;;;;;;;;;;5070372;28;20024;-64
2022/01/21 14:56:56;;;;;;;7.40;2.22;;;;;;;;;;5070260;28;20021;-63
2022/01/21 14:59:22;;;;;;;6.85;2.30;;;;;;;;;;5070286;28;20029;-65
2022/01/21 15:02:01;;;;;;;5.60;2.05;;;;;;;;;;5069753;28;20093;-63
2022/01/21 15:04:27;;;;;;;7.05;2.35;;;;;;;;;;5070057;28;20035;-66
2022/01/21 15:07:11;;;;;;;8.70;2.10;;;;;;;;;;5070010;28;20025;-63
2022/01/21 15:09:42;;;;;;;9.43;2.40;;;;;;;;;;5070111;28;20051;-63
2022/01/21 15:14:23;;;;;;;8.07;2.40;;;;;;;;;;5069688;28;20020;-63
2022/01/21 15:14:58;;;;;;;11.90;2.22;;;;;;;;;;5069780;28;20110;-62
2022/01/21 15:17:25;;;;;;;5.97;2.28;;;;;;;;;;5069827;28;20063;-63
2022/01/21 15:19:54;;;;;;;7.72;2.95;;;;;;;;;;5069985;28;20115;-63
2022/01/21 15:22:24;;;;;;;7.78;2.30;;;;;;;;;;5069632;28;20036;-63
2022/01/21 15:24:55;;;;;;;4.70;2.28;;;;;;;;;;5067019;28;20029;-62
2022/01/21 15:27:22;;;;;;;5.68;2.00;;;;;;;;;;5069660;28;20021;-61
2022/01/21 15:29:50;;;;;;;6.28;2.28;;;;;;;;;;5069533;28;20032;-62
2022/01/21 15:32:16;;;;;;;5.22;1.73;;;;;;;;;;5069497;28;20054;-63
2022/01/21 15:34:42;;;;;;;7.03;2.25;;;;;;;;;;5068136;28;20024;-64
2022/01/21 15:37:14;;;;;;;5.03;2.00;;;;;;;;;;5069444;28;20037;-63
2022/01/21 15:39:40;;;;;;;6.28;2.10;;;;;;;;;;5065888;28;20035;-62
2022/01/21 15:42:07;;;;;;;5.95;2.20;;;;;;;;;;5069130;28;20028;-63
2022/01/21 15:44:32;;;;;;;9.82;2.40;;;;;;;;;;5069380;28;20028;-63
2022/01/21 15:46:58;;;;;;;11.00;2.90;;;;;;;;;;5069654;28;20102;-63
2022/01/21 15:49:26;;;;;;;6.05;2.50;;;;;;;;;;5069386;28;20032;-63
2022/01/21 15:51:53;;;;;;;10.40;3.53;;;;;;;;;;5069194;28;20504;-62